createdAt,value
2019-01-12T00:00:03.225Z,-0.7
2019-01-12T00:01:03.403Z,-0.7
2019-01-12T00:02:02.656Z,-0.8
2019-01-12T00:03:03.623Z,-0.7
2019-01-12T00:04:03.232Z,-0.7
2019-01-12T00:05:03.304Z,-0.7
2019-01-12T00:06:02.743Z,-0.7
2019-01-12T00:07:02.773Z,-0.7
2019-01-12T00:08:03.369Z,-0.7
2019-01-12T00:09:03.004Z,-0.7
2019-01-12T00:10:02.740Z,-0.7
2019-01-12T00:11:02.892Z,-0.7
2019-01-12T00:12:02.903Z,-0.7
2019-01-12T00:13:03.179Z,-0.6
2019-01-12T00:14:03.523Z,-0.7
2019-01-12T00:15:02.664Z,-0.6
2019-01-12T00:16:03.502Z,-0.6
2019-01-12T00:17:03.224Z,-0.7
2019-01-12T00:18:02.677Z,-0.6
2019-01-12T00:19:03.465Z,-0.6
2019-01-12T00:20:03.083Z,-0.6
2019-01-12T00:21:02.851Z,-0.6
2019-01-12T00:22:02.916Z,-0.6
2019-01-12T00:23:03.029Z,-0.6
2019-01-12T00:24:03.228Z,-0.6
2019-01-12T00:25:03.477Z,-0.6
2019-01-12T00:26:02.810Z,-0.6
2019-01-12T00:27:03.089Z,-0.6
2019-01-12T00:28:03.489Z,-0.6
2019-01-12T00:29:02.553Z,-0.6
2019-01-12T00:30:03.362Z,-0.6
2019-01-12T00:31:03.074Z,-0.6
2019-01-12T00:32:03.098Z,-0.6
2019-01-12T00:33:03.261Z,-0.6
2019-01-12T00:34:03.110Z,-0.6
2019-01-12T00:35:03.362Z,-0.6
2019-01-12T00:36:03.031Z,-0.6
2019-01-12T00:37:03.518Z,-0.6
2019-01-12T00:38:02.966Z,-0.6
2019-01-12T00:39:03.274Z,-0.6
2019-01-12T00:40:03.232Z,-0.6
2019-01-12T00:41:03.378Z,-0.6
2019-01-12T00:42:02.667Z,-0.6
2019-01-12T00:43:03.366Z,-0.6
2019-01-12T00:44:03.215Z,-0.6
2019-01-12T00:45:03.585Z,-0.6
2019-01-12T00:46:02.885Z,-0.6
2019-01-12T00:47:02.893Z,-0.5
2019-01-12T00:48:02.918Z,-0.5
2019-01-12T00:49:02.769Z,-0.6
2019-01-12T00:50:03.268Z,-0.6
2019-01-12T00:51:02.872Z,-0.5
2019-01-12T00:52:03.458Z,-0.6
2019-01-12T00:53:02.895Z,-0.5
2019-01-12T00:54:02.883Z,-0.6
2019-01-12T00:55:02.978Z,-0.5
2019-01-12T00:56:03.527Z,-0.5
2019-01-12T00:57:03.051Z,-0.6
2019-01-12T00:58:03.373Z,-0.5
2019-01-12T00:59:02.724Z,-0.6
2019-01-12T01:00:03.151Z,-0.6
2019-01-12T01:01:02.791Z,-0.5
2019-01-12T01:02:03.544Z,-0.6
2019-01-12T01:03:03.196Z,-0.5
2019-01-12T01:04:03.437Z,-0.6
2019-01-12T01:05:03.067Z,-0.5
2019-01-12T01:06:02.648Z,-0.6
2019-01-12T01:07:02.827Z,-0.6
2019-01-12T01:08:03.192Z,-0.6
2019-01-12T01:09:02.618Z,-0.6
2019-01-12T01:10:03.002Z,-0.6
2019-01-12T01:11:03.505Z,-0.6
2019-01-12T01:12:02.788Z,-0.6
2019-01-12T01:13:02.951Z,-0.6
2019-01-12T01:14:02.665Z,-0.5
2019-01-12T01:15:03.086Z,-0.6
2019-01-12T01:16:03.334Z,-0.6
2019-01-12T01:17:02.915Z,-0.6
2019-01-12T01:18:03.130Z,-0.6
2019-01-12T01:19:03.038Z,-0.6
2019-01-12T01:20:03.103Z,-0.6
2019-01-12T01:21:03.508Z,-0.5
2019-01-12T01:22:03.220Z,-0.6
2019-01-12T01:23:02.843Z,-0.5
2019-01-12T01:24:02.805Z,-0.6
2019-01-12T01:25:03.134Z,-0.6
2019-01-12T01:26:02.909Z,-0.5
2019-01-12T01:27:03.555Z,-0.6
2019-01-12T01:28:03.102Z,-0.6
2019-01-12T01:29:03.293Z,-0.5
2019-01-12T01:30:03.455Z,-0.5
2019-01-12T01:31:03.267Z,-0.5
2019-01-12T01:32:02.643Z,-0.5
2019-01-12T01:33:03.502Z,-0.5
2019-01-12T01:34:03.195Z,-0.4
2019-01-12T01:35:03.544Z,-0.4
2019-01-12T01:36:03.071Z,-0.4
2019-01-12T01:37:02.645Z,-0.4
2019-01-12T01:38:03.345Z,-0.4
2019-01-12T01:39:02.879Z,-0.4
2019-01-12T01:40:02.718Z,-0.4
2019-01-12T01:41:03.511Z,-0.4
2019-01-12T01:42:03.629Z,-0.4
2019-01-12T01:43:03.094Z,-0.4
2019-01-12T01:44:03.487Z,-0.4
2019-01-12T01:45:03.128Z,-0.4
2019-01-12T01:46:03.348Z,-0.4
2019-01-12T01:47:02.549Z,-0.3
2019-01-12T01:48:03.570Z,-0.4
2019-01-12T01:49:02.603Z,-0.4
2019-01-12T01:50:03.370Z,-0.4
2019-01-12T01:51:03.597Z,-0.4
2019-01-12T01:52:03.170Z,-0.4
2019-01-12T01:53:02.750Z,-0.4
2019-01-12T01:54:03.374Z,-0.4
2019-01-12T01:55:03.740Z,-0.4
2019-01-12T01:56:03.177Z,-0.3
2019-01-12T01:57:03.272Z,-0.4
2019-01-12T01:58:02.890Z,-0.3
2019-01-12T01:59:03.503Z,-0.3
2019-01-12T02:00:02.875Z,-0.3
2019-01-12T02:01:03.411Z,-0.4
2019-01-12T02:02:02.763Z,-0.3
2019-01-12T02:03:03.562Z,-0.3
2019-01-12T02:04:03.457Z,-0.3
2019-01-12T02:05:03.057Z,-0.3
2019-01-12T02:06:03.664Z,-0.3
2019-01-12T02:07:02.878Z,-0.3
2019-01-12T02:08:03.559Z,-0.3
2019-01-12T02:09:02.598Z,-0.3
2019-01-12T02:10:03.258Z,-0.3
2019-01-12T02:11:03.464Z,-0.3
2019-01-12T02:12:02.928Z,-0.3
2019-01-12T02:13:03.050Z,-0.3
2019-01-12T02:14:02.829Z,-0.3
2019-01-12T02:15:03.121Z,-0.3
2019-01-12T02:16:02.563Z,-0.3
2019-01-12T02:17:03.179Z,-0.3
2019-01-12T02:18:03.417Z,-0.3
2019-01-12T02:19:02.619Z,-0.2
2019-01-12T02:20:03.633Z,-0.3
2019-01-12T02:21:02.893Z,-0.2
2019-01-12T02:22:03.115Z,-0.2
2019-01-12T02:23:02.723Z,-0.2
2019-01-12T02:24:02.937Z,-0.3
2019-01-12T02:25:03.591Z,-0.2
2019-01-12T02:26:03.155Z,-0.2
2019-01-12T02:27:03.232Z,-0.2
2019-01-12T02:28:02.860Z,-0.2
2019-01-12T02:29:03.312Z,-0.2
2019-01-12T02:30:02.892Z,-0.2
2019-01-12T02:31:03.099Z,-0.2
2019-01-12T02:32:03.269Z,-0.1
2019-01-12T02:33:03.473Z,-0.1
2019-01-12T02:34:02.788Z,-0.1
2019-01-12T02:35:03.401Z,-0.1
2019-01-12T02:36:03.594Z,-0.1
2019-01-12T02:37:03.435Z,-0.1
2019-01-12T02:38:03.198Z,-0.1
2019-01-12T02:39:03.384Z,-0.1
2019-01-12T02:40:03.387Z,-0.1
2019-01-12T02:41:03.114Z,-0.1
2019-01-12T02:42:02.697Z,-0.1
2019-01-12T02:43:03.501Z,-0.1
2019-01-12T02:44:02.955Z,-0.1
2019-01-12T02:45:03.113Z,-0.1
2019-01-12T02:46:03.508Z,-0.1
2019-01-12T02:47:03.334Z,-0.1
2019-01-12T02:48:02.938Z,-0.1
2019-01-12T02:49:03.071Z,-0.1
2019-01-12T02:50:02.568Z,-0.1
2019-01-12T02:51:02.467Z,-0.1
2019-01-12T02:52:02.812Z,-0.1
2019-01-12T02:53:03.591Z,-0.1
2019-01-12T02:54:02.819Z,-0.1
2019-01-12T02:55:09.369Z,-0.1
2019-01-12T02:56:02.750Z,-0.1
2019-01-12T02:57:03.464Z,-0.1
2019-01-12T02:58:02.820Z,-0.1
2019-01-12T02:59:03.529Z,-0.1
2019-01-12T03:00:03.037Z,-0.1
2019-01-12T03:01:01.660Z,-0.1
2019-01-12T03:02:03.555Z,-0.1
2019-01-12T03:03:02.879Z,-0.1
2019-01-12T03:04:03.565Z,-0.1
2019-01-12T03:05:02.850Z,-0.1
2019-01-12T03:06:03.407Z,-0.1
2019-01-12T03:07:02.858Z,-0.1
2019-01-12T03:08:03.030Z,-0.1
2019-01-12T03:09:02.597Z,-0.1
2019-01-12T03:10:02.714Z,-0.1
2019-01-12T03:11:02.476Z,-0.1
2019-01-12T03:12:03.084Z,0
2019-01-12T03:13:02.673Z,0
2019-01-12T03:14:03.021Z,0
2019-01-12T03:15:02.846Z,-0.1
2019-01-12T03:16:03.361Z,-0.1
2019-01-12T03:17:02.931Z,-0.1
2019-01-12T03:18:03.458Z,-0.1
2019-01-12T03:19:03.534Z,-0.1
2019-01-12T03:20:04.015Z,-0.1
2019-01-12T03:21:03.478Z,-0.1
2019-01-12T03:22:03.104Z,-0.1
2019-01-12T03:23:02.715Z,-0.1
2019-01-12T03:24:03.595Z,-0.1
2019-01-12T03:25:03.115Z,-0.1
2019-01-12T03:26:03.023Z,-0.1
2019-01-12T03:27:02.956Z,-0.1
2019-01-12T03:28:02.999Z,-0.1
2019-01-12T03:29:02.750Z,-0.1
2019-01-12T03:30:03.010Z,-0.1
2019-01-12T03:31:02.949Z,-0.1
2019-01-12T03:32:02.705Z,-0.1
2019-01-12T03:33:02.851Z,-0.1
2019-01-12T03:34:02.837Z,-0.1
2019-01-12T03:35:02.740Z,0
2019-01-12T03:36:03.172Z,-0.1
2019-01-12T03:37:02.981Z,0
2019-01-12T03:38:02.801Z,-0.1
2019-01-12T03:39:03.438Z,0
2019-01-12T03:40:03.290Z,0
2019-01-12T03:41:03.558Z,0
2019-01-12T03:42:03.484Z,0
2019-01-12T03:43:03.006Z,0
2019-01-12T03:44:02.874Z,0
2019-01-12T03:45:03.559Z,0
2019-01-12T03:46:03.190Z,0
2019-01-12T03:47:02.795Z,0
2019-01-12T03:48:03.159Z,0
2019-01-12T03:49:03.317Z,0
2019-01-12T03:50:03.077Z,0
2019-01-12T03:51:03.158Z,0
2019-01-12T03:52:03.119Z,0
2019-01-12T03:53:03.506Z,0
2019-01-12T03:54:02.724Z,0
2019-01-12T03:55:03.653Z,0
2019-01-12T03:56:03.103Z,0.1
2019-01-12T03:57:02.581Z,0
2019-01-12T03:58:02.933Z,0
2019-01-12T03:59:03.250Z,0
2019-01-12T04:00:03.766Z,0
2019-01-12T04:01:02.630Z,0
2019-01-12T04:02:03.562Z,0
2019-01-12T04:03:03.144Z,0.1
2019-01-12T04:04:03.441Z,0.1
2019-01-12T04:05:03.465Z,0.1
2019-01-12T04:06:03.287Z,0.1
2019-01-12T04:07:03.438Z,0.1
2019-01-12T04:08:03.005Z,0.1
2019-01-12T04:09:03.193Z,0.1
2019-01-12T04:10:03.014Z,0.1
2019-01-12T04:11:03.163Z,0.1
2019-01-12T04:12:02.733Z,0.1
2019-01-12T04:13:03.128Z,0.1
2019-01-12T04:14:02.750Z,0.1
2019-01-12T04:15:03.390Z,0.1
2019-01-12T04:16:03.283Z,0.1
2019-01-12T04:17:03.242Z,0.1
2019-01-12T04:18:02.674Z,0.1
2019-01-12T04:19:03.634Z,0.1
2019-01-12T04:20:03.582Z,0.1
2019-01-12T04:21:02.880Z,0.1
2019-01-12T04:22:03.583Z,0.1
2019-01-12T04:23:02.730Z,0.1
2019-01-12T04:24:03.025Z,0.1
2019-01-12T04:25:03.390Z,0.1
2019-01-12T04:26:03.101Z,0.1
2019-01-12T04:27:03.385Z,0.1
2019-01-12T04:28:03.159Z,0.1
2019-01-12T04:29:03.063Z,0.1
2019-01-12T04:30:03.104Z,0.1
2019-01-12T04:31:02.786Z,0.1
2019-01-12T04:32:03.436Z,0.2
2019-01-12T04:33:03.172Z,0.1
2019-01-12T04:34:03.472Z,0.1
2019-01-12T04:35:03.563Z,0.2
2019-01-12T04:36:02.975Z,0.2
2019-01-12T04:37:03.074Z,0.2
2019-01-12T04:38:03.042Z,0.2
2019-01-12T04:39:03.242Z,0.1
2019-01-12T04:40:03.323Z,0.1
2019-01-12T04:41:03.110Z,0.2
2019-01-12T04:42:02.979Z,0.2
2019-01-12T04:43:02.847Z,0.2
2019-01-12T04:44:02.667Z,0.2
2019-01-12T04:45:03.045Z,0.2
2019-01-12T04:46:03.043Z,0.2
2019-01-12T04:47:03.329Z,0.2
2019-01-12T04:48:02.686Z,0.2
2019-01-12T04:49:03.043Z,0.2
2019-01-12T04:50:02.952Z,0.2
2019-01-12T04:51:02.844Z,0.2
2019-01-12T04:52:02.905Z,0.2
2019-01-12T04:53:03.069Z,0.2
2019-01-12T04:54:02.681Z,0.2
2019-01-12T04:55:02.801Z,0.2
2019-01-12T04:56:02.928Z,0.2
2019-01-12T04:57:02.728Z,0.3
2019-01-12T04:58:02.635Z,0.3
2019-01-12T04:59:03.088Z,0.2
2019-01-12T05:00:03.037Z,0.2
2019-01-12T05:01:03.118Z,0.3
2019-01-12T05:02:03.559Z,0.3
2019-01-12T05:03:03.205Z,0.3
2019-01-12T05:04:02.812Z,0.3
2019-01-12T05:05:02.987Z,0.3
2019-01-12T05:06:02.647Z,0.3
2019-01-12T05:07:03.000Z,0.3
2019-01-12T05:08:03.368Z,0.3
2019-01-12T05:09:03.092Z,0.3
2019-01-12T05:10:03.620Z,0.3
2019-01-12T05:11:03.630Z,0.3
2019-01-12T05:12:03.526Z,0.3
2019-01-12T05:13:02.886Z,0.3
2019-01-12T05:14:02.739Z,0.3
2019-01-12T05:15:03.212Z,0.3
2019-01-12T05:16:03.367Z,0.3
2019-01-12T05:17:02.926Z,0.3
2019-01-12T05:18:03.215Z,0.3
2019-01-12T05:19:02.785Z,0.3
2019-01-12T05:20:02.962Z,0.3
2019-01-12T05:21:03.079Z,0.3
2019-01-12T05:22:03.472Z,0.3
2019-01-12T05:23:03.010Z,0.3
2019-01-12T05:24:03.649Z,0.3
2019-01-12T05:25:03.225Z,0.3
2019-01-12T05:26:02.641Z,0.3
2019-01-12T05:27:02.794Z,0.3
2019-01-12T05:28:03.019Z,0.3
2019-01-12T05:29:02.806Z,0.3
2019-01-12T05:30:02.762Z,0.3
2019-01-12T05:31:03.157Z,0.3
2019-01-12T05:32:03.387Z,0.3
2019-01-12T05:33:02.764Z,0.3
2019-01-12T05:34:03.458Z,0.3
2019-01-12T05:35:02.631Z,0.2
2019-01-12T05:36:02.846Z,0.2
2019-01-12T05:37:03.138Z,0.2
2019-01-12T05:38:02.699Z,0.2
2019-01-12T05:39:02.682Z,0.2
2019-01-12T05:40:03.705Z,0.2
2019-01-12T05:41:02.743Z,0.2
2019-01-12T05:42:03.240Z,0.2
2019-01-12T05:43:03.245Z,0.2
2019-01-12T05:44:02.931Z,0.2
2019-01-12T05:45:03.411Z,0.2
2019-01-12T05:46:02.853Z,0.2
2019-01-12T05:47:03.033Z,0.2
2019-01-12T05:48:02.930Z,0.2
2019-01-12T05:49:03.706Z,0.2
2019-01-12T05:50:03.017Z,0.1
2019-01-12T05:51:03.317Z,0.2
2019-01-12T05:52:02.998Z,0.2
2019-01-12T05:53:03.062Z,0.2
2019-01-12T05:54:02.932Z,0.2
2019-01-12T05:55:03.237Z,0.2
2019-01-12T05:56:02.833Z,0.1
2019-01-12T05:57:02.918Z,0.2
2019-01-12T05:58:02.847Z,0.2
2019-01-12T05:59:02.802Z,0.2
2019-01-12T06:00:03.508Z,0.2
2019-01-12T06:01:02.977Z,0.3
2019-01-12T06:02:02.743Z,0.2
2019-01-12T06:03:03.416Z,0.3
2019-01-12T06:04:03.131Z,0.3
2019-01-12T06:05:03.281Z,0.3
2019-01-12T06:06:03.396Z,0.3
2019-01-12T06:07:03.324Z,0.3
2019-01-12T06:08:03.087Z,0.3
2019-01-12T06:09:03.312Z,0.3
2019-01-12T06:10:03.000Z,0.3
2019-01-12T06:11:03.580Z,0.3
2019-01-12T06:12:02.912Z,0.3
2019-01-12T06:13:03.275Z,0.3
2019-01-12T06:14:03.243Z,0.3
2019-01-12T06:15:02.887Z,0.3
2019-01-12T06:16:02.734Z,0.3
2019-01-12T06:17:02.736Z,0.3
2019-01-12T06:18:03.697Z,0.3
2019-01-12T06:19:03.155Z,0.3
2019-01-12T06:20:03.039Z,0.3
2019-01-12T06:21:03.059Z,0.4
2019-01-12T06:22:02.687Z,0.4
2019-01-12T06:23:02.524Z,0.4
2019-01-12T06:24:03.373Z,0.4
2019-01-12T06:25:03.272Z,0.4
2019-01-12T06:26:04.370Z,0.4
2019-01-12T06:27:03.077Z,0.4
2019-01-12T06:28:02.954Z,0.4
2019-01-12T06:29:03.008Z,0.4
2019-01-12T06:30:03.397Z,0.4
2019-01-12T06:31:03.568Z,0.4
2019-01-12T06:32:03.408Z,0.4
2019-01-12T06:33:02.818Z,0.4
2019-01-12T06:34:02.647Z,0.4
2019-01-12T06:35:02.784Z,0.4
2019-01-12T06:36:03.427Z,0.4
2019-01-12T06:37:02.962Z,0.4
2019-01-12T06:38:02.802Z,0.4
2019-01-12T06:39:03.401Z,0.4
2019-01-12T06:40:03.454Z,0.4
2019-01-12T06:41:03.486Z,0.4
2019-01-12T06:42:02.814Z,0.5
2019-01-12T06:43:03.386Z,0.4
2019-01-12T06:44:02.589Z,0.4
2019-01-12T06:45:02.944Z,0.4
2019-01-12T06:46:03.131Z,0.4
2019-01-12T06:47:03.445Z,0.4
2019-01-12T06:48:03.526Z,0.4
2019-01-12T06:49:03.393Z,0.4
2019-01-12T06:50:03.572Z,0.5
2019-01-12T06:51:02.826Z,0.5
2019-01-12T06:52:03.420Z,0.4
2019-01-12T06:53:03.334Z,0.4
2019-01-12T06:54:02.868Z,0.4
2019-01-12T06:55:03.563Z,0.4
2019-01-12T06:56:02.785Z,0.4
2019-01-12T06:57:02.735Z,0.4
2019-01-12T06:58:03.266Z,0.4
2019-01-12T06:59:03.532Z,0.4
2019-01-12T07:00:02.844Z,0.4
2019-01-12T07:01:03.028Z,0.4
2019-01-12T07:02:03.241Z,0.4
2019-01-12T07:03:03.150Z,0.4
2019-01-12T07:04:03.094Z,0.4
2019-01-12T07:05:03.565Z,0.4
2019-01-12T07:06:03.209Z,0.4
2019-01-12T07:07:02.962Z,0.4
2019-01-12T07:08:02.644Z,0.4
2019-01-12T07:09:02.734Z,0.4
2019-01-12T07:10:03.573Z,0.4
2019-01-12T07:11:03.142Z,0.4
2019-01-12T07:12:03.007Z,0.4
2019-01-12T07:13:03.313Z,0.4
2019-01-12T07:14:02.921Z,0.4
2019-01-12T07:15:03.492Z,0.4
2019-01-12T07:16:02.856Z,0.4
2019-01-12T07:17:03.154Z,0.4
2019-01-12T07:18:09.166Z,0.4
2019-01-12T07:19:03.044Z,0.4
2019-01-12T07:20:03.433Z,0.4
2019-01-12T07:21:02.622Z,0.4
2019-01-12T07:22:03.300Z,0.4
2019-01-12T07:23:02.961Z,0.4
2019-01-12T07:24:02.833Z,0.4
2019-01-12T07:25:03.477Z,0.4
2019-01-12T07:26:03.526Z,0.4
2019-01-12T07:27:02.982Z,0.4
2019-01-12T07:28:03.550Z,0.4
2019-01-12T07:29:03.472Z,0.4
2019-01-12T07:30:02.932Z,0.5
2019-01-12T07:31:03.428Z,0.4
2019-01-12T07:32:02.701Z,0.4
2019-01-12T07:33:02.910Z,0.4
2019-01-12T07:34:03.321Z,0.4
2019-01-12T07:35:02.919Z,0.4
2019-01-12T07:36:02.717Z,0.4
2019-01-12T07:37:03.322Z,0.4
2019-01-12T07:38:03.112Z,0.4
2019-01-12T07:39:03.056Z,0.4
2019-01-12T07:40:02.955Z,0.4
2019-01-12T07:41:02.849Z,0.4
2019-01-12T07:42:02.885Z,0.4
2019-01-12T07:43:03.143Z,0.4
2019-01-12T07:44:03.641Z,0.4
2019-01-12T07:45:02.598Z,0.5
2019-01-12T07:46:03.099Z,0.5
2019-01-12T07:47:03.523Z,0.5
2019-01-12T07:48:02.715Z,0.5
2019-01-12T07:49:02.504Z,0.6
2019-01-12T07:50:03.662Z,0.6
2019-01-12T07:51:03.074Z,0.6
2019-01-12T07:52:03.166Z,0.6
2019-01-12T07:53:02.763Z,0.6
2019-01-12T07:54:02.999Z,0.6
2019-01-12T07:55:03.531Z,0.7
2019-01-12T07:56:02.460Z,0.7
2019-01-12T07:57:03.450Z,0.7
2019-01-12T07:58:03.310Z,0.7
2019-01-12T07:59:02.775Z,0.8
2019-01-12T08:00:02.944Z,0.8
2019-01-12T08:01:03.281Z,0.8
2019-01-12T08:02:03.327Z,0.8
2019-01-12T08:03:03.286Z,0.8
2019-01-12T08:04:03.035Z,0.8
2019-01-12T08:05:03.596Z,0.8
2019-01-12T08:06:03.411Z,0.8
2019-01-12T08:07:03.408Z,0.8
2019-01-12T08:08:02.915Z,0.8
2019-01-12T08:09:02.775Z,0.8
2019-01-12T08:10:03.287Z,0.8
2019-01-12T08:11:03.662Z,0.8
2019-01-12T08:12:03.196Z,0.9
2019-01-12T08:13:03.168Z,0.9
2019-01-12T08:14:03.421Z,0.8
2019-01-12T08:15:02.986Z,0.9
2019-01-12T08:16:03.189Z,0.9
2019-01-12T08:17:03.091Z,0.9
2019-01-12T08:18:03.292Z,0.9
2019-01-12T08:19:03.193Z,0.9
2019-01-12T08:20:03.740Z,0.9
2019-01-12T08:21:02.811Z,0.9
2019-01-12T08:22:03.404Z,0.9
2019-01-12T08:23:02.851Z,0.9
2019-01-12T08:24:03.188Z,0.9
2019-01-12T08:25:03.591Z,0.8
2019-01-12T08:26:03.474Z,0.9
2019-01-12T08:27:03.418Z,0.9
2019-01-12T08:28:02.707Z,0.8
2019-01-12T08:29:02.722Z,0.8
2019-01-12T08:30:02.895Z,0.8
2019-01-12T08:31:02.734Z,0.8
2019-01-12T08:32:02.976Z,0.8
2019-01-12T08:33:03.794Z,0.8
2019-01-12T08:34:02.673Z,0.8
2019-01-12T08:35:03.135Z,0.8
2019-01-12T08:36:03.477Z,0.8
2019-01-12T08:37:03.077Z,0.8
2019-01-12T08:38:03.207Z,0.8
2019-01-12T08:39:02.766Z,0.8
2019-01-12T08:40:03.559Z,0.8
2019-01-12T08:41:03.203Z,0.8
2019-01-12T08:42:03.451Z,0.8
2019-01-12T08:43:03.333Z,0.8
2019-01-12T08:44:03.685Z,0.8
2019-01-12T08:45:03.276Z,0.8
2019-01-12T08:46:03.305Z,0.8
2019-01-12T08:47:02.956Z,0.7
2019-01-12T08:48:03.046Z,0.8
2019-01-12T08:49:03.743Z,0.7
2019-01-12T08:50:03.657Z,0.7
2019-01-12T08:51:02.848Z,0.7
2019-01-12T08:52:03.368Z,0.7
2019-01-12T08:53:02.698Z,0.8
2019-01-12T08:54:02.658Z,0.7
2019-01-12T08:55:03.208Z,0.7
2019-01-12T08:56:03.584Z,0.8
2019-01-12T08:57:03.404Z,0.7
2019-01-12T08:58:03.010Z,0.8
2019-01-12T08:59:03.312Z,0.7
2019-01-12T09:00:02.699Z,0.8
2019-01-12T09:01:03.213Z,0.8
2019-01-12T09:02:03.007Z,0.8
2019-01-12T09:03:03.407Z,0.8
2019-01-12T09:04:02.921Z,0.8
2019-01-12T09:05:03.254Z,0.8
2019-01-12T09:06:02.965Z,0.9
2019-01-12T09:07:03.605Z,0.8
2019-01-12T09:08:03.432Z,0.8
2019-01-12T09:09:03.339Z,0.9
2019-01-12T09:10:03.113Z,0.8
2019-01-12T09:11:03.451Z,0.9
2019-01-12T09:12:02.874Z,0.8
2019-01-12T09:13:02.919Z,0.8
2019-01-12T09:14:03.028Z,0.9
2019-01-12T09:15:03.622Z,0.9
2019-01-12T09:16:03.542Z,0.9
2019-01-12T09:17:02.955Z,0.9
2019-01-12T09:18:02.963Z,0.9
2019-01-12T09:19:03.502Z,0.9
2019-01-12T09:20:02.968Z,0.9
2019-01-12T09:21:03.530Z,0.9
2019-01-12T09:22:02.766Z,1
2019-01-12T09:23:03.000Z,1
2019-01-12T09:24:03.370Z,1
2019-01-12T09:25:03.170Z,1.1
2019-01-12T09:26:03.028Z,1.1
2019-01-12T09:27:02.822Z,1.1
2019-01-12T09:28:03.119Z,1.1
2019-01-12T09:29:03.602Z,1.1
2019-01-12T09:30:02.556Z,1.1
2019-01-12T09:31:03.493Z,1.1
2019-01-12T09:32:03.786Z,1.2
2019-01-12T09:33:02.887Z,1.2
2019-01-12T09:34:03.272Z,1.2
2019-01-12T09:35:03.666Z,1.3
2019-01-12T09:36:03.418Z,1.3
2019-01-12T09:37:03.208Z,1.3
2019-01-12T09:38:03.414Z,1.3
2019-01-12T09:39:03.045Z,1.3
2019-01-12T09:40:03.046Z,1.3
2019-01-12T09:41:03.085Z,1.3
2019-01-12T09:42:03.153Z,1.3
2019-01-12T09:43:03.254Z,1.4
2019-01-12T09:44:03.325Z,1.4
2019-01-12T09:45:03.019Z,1.4
2019-01-12T09:46:03.167Z,1.4
2019-01-12T09:47:02.932Z,1.4
2019-01-12T09:48:03.015Z,1.4
2019-01-12T09:49:02.874Z,1.5
2019-01-12T09:50:03.101Z,1.5
2019-01-12T09:51:02.898Z,1.5
2019-01-12T09:52:03.201Z,1.6
2019-01-12T09:53:03.455Z,1.6
2019-01-12T09:54:03.252Z,1.6
2019-01-12T09:55:03.479Z,1.6
2019-01-12T09:56:02.946Z,1.6
2019-01-12T09:57:02.808Z,1.6
2019-01-12T09:58:03.077Z,1.6
2019-01-12T09:59:03.357Z,1.6
2019-01-12T10:00:02.815Z,1.6
2019-01-12T10:01:03.501Z,1.6
2019-01-12T10:02:03.107Z,1.6
2019-01-12T10:03:03.123Z,1.7
2019-01-12T10:04:03.012Z,1.7
2019-01-12T10:05:03.695Z,1.7
2019-01-12T10:06:03.390Z,1.7
2019-01-12T10:07:02.701Z,1.7
2019-01-12T10:08:02.785Z,1.7
2019-01-12T10:09:02.662Z,1.8
2019-01-12T10:10:03.485Z,1.7
2019-01-12T10:11:02.873Z,1.7
2019-01-12T10:12:03.428Z,1.8
2019-01-12T10:13:03.643Z,1.8
2019-01-12T10:14:03.626Z,1.8
2019-01-12T10:15:03.215Z,1.8
2019-01-12T10:16:03.241Z,1.8
2019-01-12T10:17:02.999Z,1.8
2019-01-12T10:18:02.756Z,1.8
2019-01-12T10:19:02.701Z,1.8
2019-01-12T10:20:02.950Z,1.8
2019-01-12T10:21:02.581Z,1.8
2019-01-12T10:22:02.942Z,1.8
2019-01-12T10:23:03.306Z,1.8
2019-01-12T10:24:02.534Z,1.8
2019-01-12T10:25:03.057Z,1.9
2019-01-12T10:26:02.845Z,1.9
2019-01-12T10:27:02.935Z,1.9
2019-01-12T10:28:03.544Z,1.8
2019-01-12T10:29:03.246Z,1.8
2019-01-12T10:30:03.066Z,1.8
2019-01-12T10:31:02.812Z,1.8
2019-01-12T10:32:03.265Z,1.8
2019-01-12T10:33:02.986Z,1.9
2019-01-12T10:34:02.939Z,1.9
2019-01-12T10:35:03.445Z,1.9
2019-01-12T10:36:03.782Z,1.9
2019-01-12T10:37:02.798Z,1.9
2019-01-12T10:38:02.697Z,1.9
2019-01-12T10:39:02.841Z,1.9
2019-01-12T10:40:03.462Z,1.8
2019-01-12T10:41:03.508Z,1.8
2019-01-12T10:42:02.784Z,1.8
2019-01-12T10:43:03.610Z,1.8
2019-01-12T10:44:03.117Z,1.8
2019-01-12T10:45:04.814Z,1.8
2019-01-12T10:46:03.847Z,1.7
2019-01-12T10:47:02.539Z,1.7
2019-01-12T10:48:02.694Z,1.7
2019-01-12T10:49:03.016Z,1.7
2019-01-12T10:50:02.972Z,1.7
2019-01-12T10:51:03.265Z,1.8
2019-01-12T10:52:03.443Z,1.7
2019-01-12T10:53:02.858Z,1.6
2019-01-12T10:54:02.980Z,1.7
2019-01-12T10:55:03.155Z,1.6
2019-01-12T10:56:02.886Z,1.6
2019-01-12T10:57:05.946Z,1.7
2019-01-12T10:58:02.731Z,1.6
2019-01-12T10:59:02.792Z,1.6
2019-01-12T11:00:03.384Z,1.6
2019-01-12T11:01:03.135Z,1.6
2019-01-12T11:02:03.031Z,1.7
2019-01-12T11:03:03.292Z,1.7
2019-01-12T11:04:02.705Z,1.7
2019-01-12T11:05:03.462Z,1.6
2019-01-12T11:06:03.440Z,1.6
2019-01-12T11:07:02.994Z,1.6
2019-01-12T11:08:02.773Z,1.6
2019-01-12T11:09:03.286Z,1.7
2019-01-12T11:10:04.602Z,1.7
2019-01-12T11:11:02.725Z,1.7
2019-01-12T11:12:02.475Z,1.7
2019-01-12T11:13:03.138Z,1.7
2019-01-12T11:14:02.810Z,1.7
2019-01-12T11:15:03.062Z,1.7
2019-01-12T11:16:03.318Z,1.7
2019-01-12T11:17:03.166Z,1.8
2019-01-12T11:18:03.097Z,1.8
2019-01-12T11:19:02.895Z,1.8
2019-01-12T11:20:03.125Z,1.8
2019-01-12T11:21:03.506Z,1.8
2019-01-12T11:22:02.815Z,1.8
2019-01-12T11:23:03.207Z,1.8
2019-01-12T11:24:03.932Z,1.8
2019-01-12T11:25:03.400Z,1.9
2019-01-12T11:26:03.090Z,1.9
2019-01-12T11:27:03.286Z,1.8
2019-01-12T11:28:02.843Z,1.9
2019-01-12T11:29:02.981Z,1.9
2019-01-12T11:30:03.314Z,1.9
2019-01-12T11:31:03.051Z,1.9
2019-01-12T11:32:03.529Z,1.9
2019-01-12T11:33:03.293Z,1.9
2019-01-12T11:34:02.771Z,1.9
2019-01-12T11:35:03.602Z,1.9
2019-01-12T11:36:02.671Z,1.9
2019-01-12T11:37:03.225Z,1.9
2019-01-12T11:38:03.516Z,1.9
2019-01-12T11:39:03.255Z,1.9
2019-01-12T11:40:03.138Z,2
2019-01-12T11:41:03.331Z,2
2019-01-12T11:42:03.170Z,2
2019-01-12T11:43:02.810Z,2
2019-01-12T11:44:03.283Z,2
2019-01-12T11:45:03.361Z,2.1
2019-01-12T11:46:03.207Z,2.1
2019-01-12T11:47:02.830Z,2.1
2019-01-12T11:48:02.949Z,2.1
2019-01-12T11:49:03.367Z,2.1
2019-01-12T11:50:03.314Z,2.1
2019-01-12T11:51:02.759Z,2.1
2019-01-12T11:52:03.419Z,2.1
2019-01-12T11:53:03.332Z,2.1
2019-01-12T11:54:02.679Z,2.1
2019-01-12T11:55:03.375Z,2.1
2019-01-12T11:56:02.735Z,2.1
2019-01-12T11:57:03.246Z,2.1
2019-01-12T11:58:03.186Z,2.1
2019-01-12T11:59:02.989Z,2.1
2019-01-12T12:00:02.992Z,2.1
2019-01-12T12:01:02.752Z,2.1
2019-01-12T12:02:02.866Z,2.1
2019-01-12T12:03:03.484Z,2.1
2019-01-12T12:04:02.964Z,2.1
2019-01-12T12:05:02.873Z,2.1
2019-01-12T12:06:02.738Z,2.1
2019-01-12T12:07:02.930Z,2.1
2019-01-12T12:08:03.042Z,2.1
2019-01-12T12:09:02.750Z,2.2
2019-01-12T12:10:02.967Z,2.2
2019-01-12T12:11:02.959Z,2.2
2019-01-12T12:12:02.867Z,2.2
2019-01-12T12:13:03.203Z,2.1
2019-01-12T12:14:03.460Z,2.2
2019-01-12T12:15:03.585Z,2.1
2019-01-12T12:16:03.518Z,2.2
2019-01-12T12:17:03.403Z,2.2
2019-01-12T12:18:03.573Z,2.2
2019-01-12T12:19:03.498Z,2.1
2019-01-12T12:20:03.242Z,2.1
2019-01-12T12:21:03.546Z,2.1
2019-01-12T12:22:03.194Z,2.1
2019-01-12T12:23:02.941Z,2.1
2019-01-12T12:24:03.316Z,2.1
2019-01-12T12:25:02.893Z,2.1
2019-01-12T12:26:02.617Z,2.1
2019-01-12T12:27:02.763Z,2.1
2019-01-12T12:28:03.148Z,2.2
2019-01-12T12:29:03.577Z,2.2
2019-01-12T12:30:03.055Z,2.2
2019-01-12T12:31:02.936Z,2.2
2019-01-12T12:32:03.227Z,2.2
2019-01-12T12:33:02.723Z,2.2
2019-01-12T12:34:02.920Z,2.2
2019-01-12T12:35:02.750Z,2.2
2019-01-12T12:36:02.720Z,2.2
2019-01-12T12:37:02.791Z,2.2
2019-01-12T12:38:03.636Z,2.2
2019-01-12T12:39:03.418Z,2.2
2019-01-12T12:40:02.795Z,2.1
2019-01-12T12:41:03.382Z,2.1
2019-01-12T12:42:02.730Z,2.1
2019-01-12T12:43:03.095Z,2.1
2019-01-12T12:44:03.641Z,2.1
2019-01-12T12:45:03.845Z,2.1
2019-01-12T12:46:03.313Z,2.1
2019-01-12T12:47:03.050Z,2.1
2019-01-12T12:48:03.008Z,2.1
2019-01-12T12:49:03.450Z,2.1
2019-01-12T12:50:02.778Z,2.1
2019-01-12T12:51:02.768Z,2.1
2019-01-12T12:52:03.390Z,2.1
2019-01-12T12:53:02.949Z,2.1
2019-01-12T12:54:02.492Z,2.1
2019-01-12T12:55:02.929Z,2.1
2019-01-12T12:56:03.398Z,2.1
2019-01-12T12:57:02.903Z,2.1
2019-01-12T12:58:03.149Z,2.1
2019-01-12T12:59:03.558Z,2.1
2019-01-12T13:00:02.953Z,2.1
2019-01-12T13:01:03.602Z,2.1
2019-01-12T13:02:03.316Z,2.1
2019-01-12T13:03:02.911Z,2
2019-01-12T13:04:02.907Z,2.1
2019-01-12T13:05:03.282Z,2.1
2019-01-12T13:06:03.020Z,2.1
2019-01-12T13:07:03.164Z,2.1
2019-01-12T13:08:03.264Z,2.1
2019-01-12T13:09:03.135Z,2.1
2019-01-12T13:10:02.973Z,2.1
2019-01-12T13:11:03.498Z,2
2019-01-12T13:12:03.518Z,2
2019-01-12T13:13:02.909Z,2
2019-01-12T13:14:03.028Z,2
2019-01-12T13:15:02.777Z,2
2019-01-12T13:16:02.741Z,2
2019-01-12T13:17:03.461Z,2.1
2019-01-12T13:18:02.799Z,2
2019-01-12T13:20:53.882Z,0
2019-01-12T13:21:02.559Z,0
2019-01-12T13:22:03.222Z,2
2019-01-12T13:23:02.840Z,2.1
2019-01-12T13:24:03.448Z,2
2019-01-12T13:25:02.744Z,2.1
2019-01-12T13:26:02.861Z,2
2019-01-12T13:27:03.831Z,2.1
2019-01-12T13:28:03.460Z,2.1
2019-01-12T13:29:03.198Z,2.1
2019-01-12T13:30:03.370Z,2.1
2019-01-12T13:31:03.105Z,2.1
2019-01-12T13:32:03.318Z,2.1
2019-01-12T13:33:03.472Z,2
2019-01-12T13:34:02.555Z,2
2019-01-12T13:35:02.796Z,2
2019-01-12T13:36:02.757Z,2
2019-01-12T13:37:03.117Z,2
2019-01-12T13:38:02.871Z,2.1
2019-01-12T13:39:03.066Z,2.1
2019-01-12T13:40:02.918Z,2.1
2019-01-12T13:41:03.222Z,2.1
2019-01-12T13:42:02.812Z,2.1
2019-01-12T13:43:03.116Z,2.1